📊 John's Weather Station

Last reading: 2021-06-25 22:06:01

TEMPERATURE

--

Temperature 20 readings
Min Max Average
22.63 °C 23.49 °C 23.08 °C

HUMIDITY

--

Humidity 20 readings
Min Max Average
53.88 % 56.57 % 54.93 %

View Latest 20 Readings

ID Sensor Location Temp Humid Bar Timestamp
70694 BME280 Lounge 23.20 56.57 1019.72 2021-06-25 22:06:01
70693 BME280 Lounge 23.11 54.39 1019.87 2021-06-25 21:58:13
70692 BME280 Lounge 23.08 54.54 1019.85 2021-06-25 21:48:38
70691 BME280 Lounge 23.06 54.69 1019.73 2021-06-25 21:39:00
70690 BME280 Lounge 22.82 55.06 1019.60 2021-06-25 21:29:23
70689 BME280 Lounge 23.30 53.88 1019.33 2021-06-25 21:19:48
70688 BME280 Lounge 23.23 53.99 1019.29 2021-06-25 21:10:12
70687 BME280 Lounge 23.40 54.13 1019.52 2021-06-25 21:00:38
70686 BME280 Lounge 23.04 55.06 1019.67 2021-06-25 20:51:02
70685 BME280 Lounge 23.30 55.14 1019.71 2021-06-25 20:41:28
70684 BME280 Lounge 23.26 55.39 1019.77 2021-06-25 20:31:53
70683 BME280 Lounge 22.79 55.92 1019.72 2021-06-25 20:22:16
70682 BME280 Lounge 22.92 55.52 1019.85 2021-06-25 20:12:40
70681 BME280 Lounge 22.67 55.77 1019.85 2021-06-25 20:03:03
70680 BME280 Lounge 23.18 54.68 1019.88 2021-06-25 19:53:29
70679 BME280 Lounge 23.07 55.04 1019.68 2021-06-25 19:43:52
70678 BME280 Lounge 23.27 54.30 1019.66 2021-06-25 19:34:17
70677 BME280 Lounge 23.49 53.92 1019.89 2021-06-25 19:24:42
70676 BME280 Lounge 22.63 55.72 1019.78 2021-06-25 19:15:05
70675 BME280 Lounge 22.85 54.82 1019.82 2021-06-25 19:05:30